createdAt,value
2022-12-05T00:02:22.055Z,10.11
2022-12-05T00:04:50.385Z,10.08
2022-12-05T00:07:18.234Z,10.07
2022-12-05T00:09:46.607Z,10.08
2022-12-05T00:12:14.755Z,10.04
2022-12-05T00:14:44.035Z,10.11
2022-12-05T00:17:12.311Z,10.12
2022-12-05T00:19:40.649Z,10.11
2022-12-05T00:22:08.475Z,10.11
2022-12-05T00:24:37.122Z,10.13
2022-12-05T00:27:05.109Z,10.11
2022-12-05T00:29:33.494Z,10.12
2022-12-05T00:32:01.694Z,10.16
2022-12-05T00:34:30.339Z,10.07
2022-12-05T00:36:59.338Z,10.18
2022-12-05T00:39:28.198Z,10.19
2022-12-05T00:41:56.316Z,10.20
2022-12-05T00:44:24.426Z,10.22
2022-12-05T00:46:52.663Z,10.16
2022-12-05T00:49:20.785Z,10.20
2022-12-05T00:51:48.792Z,10.15
2022-12-05T00:54:17.702Z,10.20
2022-12-05T00:56:46.559Z,10.19
2022-12-05T00:59:20.869Z,10.21
2022-12-05T01:01:50.668Z,10.19
2022-12-05T01:04:23.174Z,10.24
2022-12-05T01:06:55.950Z,10.22
2022-12-05T01:09:25.598Z,10.23
2022-12-05T01:11:53.788Z,10.21
2022-12-05T01:14:25.126Z,10.21
2022-12-05T01:16:55.796Z,10.26
2022-12-05T01:19:31.456Z,10.31
2022-12-05T01:22:02.604Z,10.30
2022-12-05T01:24:31.442Z,10.26
2022-12-05T01:26:59.598Z,10.27
2022-12-05T01:29:28.042Z,10.29
2022-12-05T01:31:56.818Z,10.33
2022-12-05T01:34:25.694Z,10.34
2022-12-05T01:36:54.434Z,10.32
2022-12-05T01:39:22.997Z,10.27
2022-12-05T01:41:51.520Z,10.34
2022-12-05T01:44:19.418Z,10.36
2022-12-05T01:46:52.878Z,10.30
2022-12-05T01:49:37.520Z,10.38
2022-12-05T01:52:20.533Z,10.30
2022-12-05T01:54:54.688Z,10.30
2022-12-05T01:57:23.874Z,10.38
2022-12-05T01:59:58.893Z,10.43
2022-12-05T02:02:32.486Z,10.44
2022-12-05T02:05:10.615Z,10.46
2022-12-05T02:07:41.369Z,10.45
2022-12-05T02:10:10.845Z,10.40
2022-12-05T02:12:39.445Z,10.45
2022-12-05T02:15:56.942Z,10.47
2022-12-05T02:18:57.842Z,10.47
2022-12-05T02:22:05.057Z,10.45
2022-12-05T02:24:43.117Z,10.43
2022-12-05T02:27:38.684Z,10.46
2022-12-05T02:30:14.324Z,10.46
2022-12-05T02:33:23.847Z,10.47
2022-12-05T02:36:04.271Z,10.47
2022-12-05T02:38:56.025Z,10.50
2022-12-05T02:41:31.034Z,10.50
2022-12-05T02:44:11.277Z,10.53
2022-12-05T02:46:42.052Z,10.53
2022-12-05T02:49:17.565Z,10.52
2022-12-05T02:51:52.502Z,10.55
2022-12-05T02:54:26.552Z,10.55
2022-12-05T02:56:57.505Z,10.48
2022-12-05T02:59:25.706Z,10.57
2022-12-05T03:01:55.314Z,10.57
2022-12-05T03:04:26.802Z,10.56
2022-12-05T03:07:09.904Z,10.57
2022-12-05T03:09:48.044Z,10.56
2022-12-05T03:12:30.555Z,10.53
2022-12-05T03:15:08.431Z,10.55
2022-12-05T03:17:53.644Z,10.54
2022-12-05T03:20:33.340Z,10.54
2022-12-05T03:23:38.167Z,10.46
2022-12-05T03:26:45.118Z,10.43
2022-12-05T03:29:24.161Z,10.37
2022-12-05T03:32:28.860Z,10.43
2022-12-05T03:35:22.791Z,10.48
2022-12-05T03:38:04.252Z,10.47
2022-12-05T03:40:42.829Z,10.50
2022-12-05T03:43:29.313Z,10.57
2022-12-05T03:46:11.501Z,10.58
2022-12-05T03:48:42.626Z,10.57
2022-12-05T03:51:14.862Z,10.54
2022-12-05T03:53:59.630Z,10.60
2022-12-05T03:56:49.388Z,10.65
2022-12-05T03:59:35.843Z,10.66
2022-12-05T04:02:32.796Z,10.68
2022-12-05T04:05:29.240Z,10.67
2022-12-05T04:08:12.150Z,10.61
2022-12-05T04:10:50.530Z,10.65
2022-12-05T04:13:33.186Z,10.65
2022-12-05T04:17:03.623Z,10.68
2022-12-05T04:20:15.048Z,10.68
2022-12-05T04:22:44.627Z,10.63
2022-12-05T04:25:35.169Z,10.62
2022-12-05T04:29:07.641Z,10.73
2022-12-05T04:31:45.678Z,10.53
2022-12-05T04:34:15.945Z,10.64
2022-12-05T04:37:14.673Z,10.74
2022-12-05T04:40:14.637Z,10.76
2022-12-05T04:42:44.942Z,10.76
2022-12-05T04:45:16.156Z,10.78
2022-12-05T04:47:54.836Z,10.80
2022-12-05T04:50:24.609Z,10.81
2022-12-05T04:52:56.986Z,10.83
2022-12-05T04:55:28.110Z,10.76
2022-12-05T04:58:08.005Z,10.80
2022-12-05T05:00:51.437Z,10.79
2022-12-05T05:03:59.244Z,10.73
2022-12-05T05:06:27.643Z,10.56
2022-12-05T05:08:58.677Z,10.70
2022-12-05T05:11:29.834Z,10.70
2022-12-05T05:13:57.901Z,10.71
2022-12-05T05:16:33.394Z,10.75
2022-12-05T05:19:01.717Z,10.75
2022-12-05T05:21:39.667Z,10.78
2022-12-05T05:24:11.835Z,10.77
2022-12-05T05:26:43.003Z,10.77
2022-12-05T05:29:13.525Z,10.79
2022-12-05T05:31:42.347Z,10.76
2022-12-05T05:34:12.128Z,10.78
2022-12-05T05:36:40.347Z,10.82
2022-12-05T05:39:14.238Z,10.82
2022-12-05T05:41:42.858Z,10.80
2022-12-05T05:44:11.847Z,10.80
2022-12-05T05:46:40.235Z,10.78
2022-12-05T05:49:08.500Z,10.82
2022-12-05T05:51:39.231Z,10.82
2022-12-05T05:54:07.202Z,10.82
2022-12-05T05:56:36.624Z,10.81
2022-12-05T05:59:06.886Z,10.85
2022-12-05T06:01:35.542Z,10.85
2022-12-05T06:04:03.951Z,10.87
2022-12-05T06:06:32.313Z,10.88
2022-12-05T06:09:00.386Z,10.89
2022-12-05T06:11:28.749Z,10.88
2022-12-05T06:14:01.390Z,10.82
2022-12-05T06:16:32.309Z,10.84
2022-12-05T06:19:01.950Z,10.71
2022-12-05T06:21:30.116Z,10.76
2022-12-05T06:23:58.730Z,10.83
2022-12-05T06:26:29.027Z,10.80
2022-12-05T06:28:57.149Z,10.86
2022-12-05T06:31:32.074Z,10.86
2022-12-05T06:34:05.221Z,10.85
2022-12-05T06:36:33.680Z,10.76
2022-12-05T06:39:03.057Z,10.86
2022-12-05T06:41:32.073Z,10.85
2022-12-05T06:44:02.491Z,10.90
2022-12-05T06:46:31.214Z,10.81
2022-12-05T06:49:00.248Z,10.95
2022-12-05T06:51:28.984Z,10.86
2022-12-05T06:53:58.379Z,10.93
2022-12-05T06:56:29.537Z,10.99
2022-12-05T06:58:58.363Z,10.94
2022-12-05T07:01:42.853Z,10.93
2022-12-05T07:04:15.884Z,10.92
2022-12-05T07:06:50.126Z,10.91
2022-12-05T07:09:46.250Z,10.99
2022-12-05T07:12:17.705Z,10.98
2022-12-05T07:14:50.680Z,10.98
2022-12-05T07:17:20.471Z,11.00
2022-12-05T07:19:49.793Z,11.01
2022-12-05T07:22:21.167Z,11.01
2022-12-05T07:24:53.581Z,11.00
2022-12-05T07:27:27.522Z,10.91
2022-12-05T07:29:56.779Z,11.02
2022-12-05T07:32:25.183Z,11.03
2022-12-05T07:34:55.529Z,11.01
2022-12-05T07:37:24.921Z,11.03
2022-12-05T07:39:53.739Z,11.03
2022-12-05T07:42:21.918Z,10.99
2022-12-05T07:44:50.386Z,11.01
2022-12-05T07:47:18.515Z,11.02
2022-12-05T07:49:46.768Z,10.96
2022-12-05T07:52:14.634Z,11.00
2022-12-05T07:54:42.699Z,11.03
2022-12-05T07:57:11.683Z,11.07
2022-12-05T07:59:40.688Z,11.06
2022-12-05T08:02:10.672Z,11.06
2022-12-05T08:04:39.626Z,11.01
2022-12-05T08:07:12.645Z,11.05
2022-12-05T08:09:41.994Z,10.98
2022-12-05T08:12:10.205Z,11.04
2022-12-05T08:14:38.746Z,10.99
2022-12-05T08:17:08.196Z,11.07
2022-12-05T08:19:37.094Z,11.09
2022-12-05T08:22:05.794Z,11.10
2022-12-05T08:24:36.488Z,11.08
2022-12-05T08:27:06.338Z,11.00
2022-12-05T08:29:34.485Z,11.03
2022-12-05T08:32:02.456Z,11.13
2022-12-05T08:34:30.858Z,11.16
2022-12-05T08:36:58.683Z,11.20
2022-12-05T08:39:27.357Z,11.19
2022-12-05T08:41:55.908Z,11.19
2022-12-05T08:44:24.159Z,11.22
2022-12-05T08:46:52.578Z,11.23
2022-12-05T08:49:21.144Z,11.16
2022-12-05T08:51:49.371Z,11.24
2022-12-05T08:54:17.925Z,11.18
2022-12-05T08:56:46.254Z,11.27
2022-12-05T08:59:14.787Z,11.29
2022-12-05T09:01:43.518Z,11.25
2022-12-05T09:04:12.744Z,11.29
2022-12-05T09:06:44.597Z,11.37
2022-12-05T09:09:13.138Z,11.40
2022-12-05T09:11:49.394Z,11.42
2022-12-05T09:14:18.914Z,11.35
2022-12-05T09:16:48.356Z,11.39
2022-12-05T09:19:21.527Z,11.42
2022-12-05T09:21:49.800Z,11.40
2022-12-05T09:24:18.165Z,11.47
2022-12-05T09:26:47.386Z,11.49
2022-12-05T09:29:17.707Z,11.43
2022-12-05T09:31:48.969Z,11.52
2022-12-05T09:34:18.645Z,11.51
2022-12-05T09:36:55.783Z,11.54
2022-12-05T09:39:29.543Z,11.53
2022-12-05T09:42:18.741Z,11.60
2022-12-05T09:45:26.046Z,11.58
2022-12-05T09:47:55.725Z,11.53
2022-12-05T09:50:35.283Z,11.57
2022-12-05T09:53:21.048Z,11.58
2022-12-05T09:55:53.633Z,11.57
2022-12-05T09:58:42.643Z,11.65
2022-12-05T10:01:33.154Z,11.65
2022-12-05T10:04:29.244Z,11.66
2022-12-05T10:07:25.500Z,11.66
2022-12-05T10:10:21.340Z,11.62
2022-12-05T10:13:36.970Z,11.61
2022-12-05T10:16:14.653Z,11.59
2022-12-05T10:19:12.443Z,11.66
2022-12-05T10:21:50.158Z,11.68
2022-12-05T10:24:32.078Z,11.67
2022-12-05T10:27:07.392Z,11.69
2022-12-05T10:29:57.916Z,11.70
2022-12-05T10:32:46.917Z,11.72
2022-12-05T10:35:41.562Z,11.69
2022-12-05T10:38:31.534Z,11.67
2022-12-05T10:41:05.606Z,11.72
2022-12-05T10:43:38.241Z,11.71
2022-12-05T10:46:09.728Z,11.68
2022-12-05T10:48:42.817Z,11.76
2022-12-05T10:51:18.733Z,11.77
2022-12-05T10:53:51.323Z,11.75
2022-12-05T10:56:40.750Z,11.76
2022-12-05T10:59:17.871Z,11.75
2022-12-05T11:01:59.843Z,11.72
2022-12-05T11:04:44.673Z,11.71
2022-12-05T11:07:36.651Z,11.73
2022-12-05T11:10:44.233Z,11.71
2022-12-05T11:13:23.954Z,11.70
2022-12-05T11:15:55.572Z,11.66
2022-12-05T11:18:30.528Z,11.76
2022-12-05T11:21:12.460Z,11.75
2022-12-05T11:23:41.155Z,11.77
2022-12-05T11:26:37.982Z,11.82
2022-12-05T11:29:36.935Z,11.86
2022-12-05T11:32:18.325Z,11.87
2022-12-05T11:35:12.563Z,11.90
2022-12-05T11:38:11.372Z,11.92
2022-12-05T11:41:01.108Z,11.96
2022-12-05T11:44:07.403Z,12.02
2022-12-05T11:46:47.743Z,12.01
2022-12-05T11:49:59.704Z,12.04
2022-12-05T11:52:40.447Z,12.01
2022-12-05T11:55:23.534Z,12.07
2022-12-05T11:58:03.482Z,12.10
2022-12-05T12:00:57.669Z,12.11
2022-12-05T12:04:13.400Z,12.14
2022-12-05T12:06:57.325Z,12.09
2022-12-05T12:09:41.044Z,12.17
2022-12-05T12:12:53.516Z,12.28
2022-12-05T12:15:46.731Z,12.31
2022-12-05T12:18:53.329Z,12.38
2022-12-05T12:21:43.140Z,12.44
2022-12-05T12:24:32.379Z,12.42
2022-12-05T12:27:33.934Z,12.46
2022-12-05T12:30:05.693Z,12.47
2022-12-05T12:33:02.303Z,12.53
2022-12-05T12:36:00.445Z,12.54
2022-12-05T12:39:09.270Z,12.54
2022-12-05T12:42:22.371Z,12.55
2022-12-05T12:45:28.491Z,12.55
2022-12-05T12:48:37.024Z,12.51
2022-12-05T12:51:08.583Z,12.49
2022-12-05T12:53:58.686Z,12.34
2022-12-05T12:56:47.789Z,12.43
2022-12-05T12:59:32.910Z,12.47
2022-12-05T13:02:17.643Z,12.46
2022-12-05T13:05:05.245Z,12.43
2022-12-05T13:07:48.507Z,12.40
2022-12-05T13:10:30.602Z,12.33
2022-12-05T13:13:01.079Z,12.32
2022-12-05T13:15:56.673Z,12.45
2022-12-05T13:18:26.842Z,12.47
2022-12-05T13:21:01.728Z,12.42
2022-12-05T13:23:34.434Z,12.52
2022-12-05T13:26:10.954Z,12.54
2022-12-05T13:28:55.222Z,12.52
2022-12-05T13:31:40.392Z,12.51
2022-12-05T13:34:27.544Z,12.48
2022-12-05T13:37:20.268Z,12.43
2022-12-05T13:40:14.581Z,12.38
2022-12-05T13:42:43.477Z,12.38
2022-12-05T13:45:34.904Z,12.33
2022-12-05T13:48:28.465Z,12.36
2022-12-05T13:51:36.311Z,12.37
2022-12-05T13:54:31.778Z,12.32
2022-12-05T13:57:54.021Z,12.36
2022-12-05T14:00:38.688Z,12.37
2022-12-05T14:03:22.316Z,12.36
2022-12-05T14:05:54.267Z,12.35
2022-12-05T14:08:31.241Z,12.36
2022-12-05T14:10:59.544Z,12.33
2022-12-05T14:13:27.688Z,12.34
2022-12-05T14:16:17.353Z,12.35
2022-12-05T14:19:37.785Z,12.30
2022-12-05T14:22:48.236Z,12.27
2022-12-05T14:25:29.385Z,12.28
2022-12-05T14:28:18.636Z,12.21
2022-12-05T14:31:01.836Z,12.25
2022-12-05T14:33:30.264Z,12.21
2022-12-05T14:36:08.956Z,12.21
2022-12-05T14:38:37.958Z,12.09
2022-12-05T14:41:34.388Z,12.17
2022-12-05T14:44:08.589Z,12.16
2022-12-05T14:46:37.555Z,12.13
2022-12-05T14:49:54.464Z,12.18
2022-12-05T14:52:27.748Z,12.21
2022-12-05T14:55:09.270Z,12.25
2022-12-05T14:57:49.141Z,12.22
2022-12-05T15:00:23.147Z,12.28
2022-12-05T15:02:55.654Z,12.30
2022-12-05T15:05:32.223Z,12.35
2022-12-05T15:08:04.915Z,12.31
2022-12-05T15:10:42.185Z,12.32
2022-12-05T15:13:19.312Z,12.34
2022-12-05T15:16:01.285Z,12.22
2022-12-05T15:18:46.966Z,12.10
2022-12-05T15:21:43.425Z,12.18
2022-12-05T15:24:19.373Z,12.20
2022-12-05T15:26:56.926Z,12.20
2022-12-05T15:29:30.036Z,12.22
2022-12-05T15:32:13.818Z,12.23
2022-12-05T15:35:05.319Z,12.23
2022-12-05T15:37:52.908Z,12.21
2022-12-05T15:40:24.230Z,12.21
2022-12-05T15:42:55.637Z,12.18
2022-12-05T15:45:26.671Z,12.06
2022-12-05T15:47:57.541Z,12.11
2022-12-05T15:50:45.635Z,12.19
2022-12-05T15:53:37.122Z,12.20
2022-12-05T15:56:34.439Z,12.18
2022-12-05T15:59:33.411Z,12.17
2022-12-05T16:02:20.611Z,12.14
2022-12-05T16:04:58.231Z,12.14
2022-12-05T16:07:30.968Z,12.17
2022-12-05T16:10:01.100Z,12.12
2022-12-05T16:12:41.952Z,12.18
2022-12-05T16:15:28.091Z,12.15
2022-12-05T16:18:02.169Z,12.18
2022-12-05T16:20:36.264Z,12.19
2022-12-05T16:23:23.138Z,12.12
2022-12-05T16:25:52.726Z,12.17
2022-12-05T16:28:23.744Z,12.21
2022-12-05T16:31:02.745Z,12.21
2022-12-05T16:33:32.100Z,12.19
2022-12-05T16:36:11.717Z,12.17
2022-12-05T16:39:07.059Z,12.17
2022-12-05T16:41:39.365Z,12.11
2022-12-05T16:44:27.686Z,12.16
2022-12-05T16:46:56.796Z,12.12
2022-12-05T16:49:30.895Z,12.14
2022-12-05T16:52:14.983Z,12.13
2022-12-05T16:54:48.170Z,12.11
2022-12-05T16:57:17.719Z,12.03
2022-12-05T16:59:49.646Z,12.10
2022-12-05T17:02:20.682Z,12.05
2022-12-05T17:04:48.899Z,12.08
2022-12-05T17:07:16.780Z,12.11
2022-12-05T17:09:44.979Z,12.08
2022-12-05T17:12:24.010Z,12.05
2022-12-05T17:14:52.144Z,12.08
2022-12-05T17:17:21.248Z,12.06
2022-12-05T17:19:49.488Z,11.98
2022-12-05T17:22:17.940Z,11.99
2022-12-05T17:24:47.541Z,12.05
2022-12-05T17:27:17.745Z,12.10
2022-12-05T17:29:46.423Z,12.12
2022-12-05T17:32:15.508Z,12.13
2022-12-05T17:34:43.508Z,12.14
2022-12-05T17:37:11.573Z,12.07
2022-12-05T17:39:39.603Z,12.11
2022-12-05T17:42:08.503Z,12.08
2022-12-05T17:44:36.961Z,12.08
2022-12-05T17:47:08.150Z,12.08
2022-12-05T17:49:36.515Z,12.07
2022-12-05T17:52:21.375Z,12.08
2022-12-05T17:54:50.856Z,12.08
2022-12-05T17:57:18.925Z,12.07
2022-12-05T17:59:48.318Z,12.08
2022-12-05T18:02:20.247Z,12.03
2022-12-05T18:04:49.662Z,12.02
2022-12-05T18:07:17.902Z,11.97
2022-12-05T18:09:45.879Z,11.95
2022-12-05T18:12:14.654Z,11.90
2022-12-05T18:14:43.311Z,11.84
2022-12-05T18:17:11.304Z,11.85
2022-12-05T18:19:39.675Z,11.79
2022-12-05T18:22:07.959Z,11.79
2022-12-05T18:24:36.598Z,11.82
2022-12-05T18:27:05.147Z,11.76
2022-12-05T18:29:34.008Z,11.82
2022-12-05T18:32:02.784Z,11.82
2022-12-05T18:34:31.048Z,11.82
2022-12-05T18:36:59.828Z,11.81
2022-12-05T18:39:28.935Z,11.83
2022-12-05T18:41:57.715Z,11.77
2022-12-05T18:44:26.752Z,11.80
2022-12-05T18:46:55.091Z,11.81
2022-12-05T18:49:23.328Z,11.83
2022-12-05T18:51:52.657Z,11.82
2022-12-05T18:54:21.004Z,11.82
2022-12-05T18:56:51.465Z,11.67
2022-12-05T18:59:23.245Z,11.75
2022-12-05T19:01:52.690Z,11.71
2022-12-05T19:04:22.748Z,11.63
2022-12-05T19:07:02.365Z,11.54
2022-12-05T19:09:32.604Z,11.46
2022-12-05T19:12:02.030Z,11.38
2022-12-05T19:14:33.675Z,11.31
2022-12-05T19:17:04.203Z,11.31
2022-12-05T19:19:33.503Z,11.31
2022-12-05T19:22:02.638Z,11.29
2022-12-05T19:24:31.352Z,11.29
2022-12-05T19:26:59.850Z,11.24
2022-12-05T19:29:29.264Z,11.11
2022-12-05T19:31:57.963Z,10.98
2022-12-05T19:34:28.364Z,10.93
2022-12-05T19:36:57.516Z,10.84
2022-12-05T19:39:27.457Z,10.77
2022-12-05T19:42:00.584Z,10.66
2022-12-05T19:44:29.333Z,10.76
2022-12-05T19:46:58.363Z,10.71
2022-12-05T19:49:28.648Z,10.69
2022-12-05T19:51:57.428Z,10.60
2022-12-05T19:54:26.886Z,10.63
2022-12-05T19:56:58.592Z,10.72
2022-12-05T19:59:32.777Z,10.65
2022-12-05T20:02:03.217Z,10.77
2022-12-05T20:04:34.479Z,10.74
2022-12-05T20:07:03.775Z,10.84
2022-12-05T20:09:35.052Z,10.85
2022-12-05T20:12:04.602Z,10.89
2022-12-05T20:14:34.872Z,10.94
2022-12-05T20:17:05.554Z,11.00
2022-12-05T20:19:34.892Z,11.03
2022-12-05T20:22:06.264Z,11.06
2022-12-05T20:24:44.240Z,11.10
2022-12-05T20:27:14.571Z,11.07
2022-12-05T20:29:46.043Z,11.14
2022-12-05T20:32:15.620Z,11.10
2022-12-05T20:34:46.763Z,11.21
2022-12-05T20:37:18.004Z,11.21
2022-12-05T20:39:47.604Z,11.20
2022-12-05T20:42:18.537Z,11.25
2022-12-05T20:44:49.418Z,11.29
2022-12-05T20:47:18.863Z,11.33
2022-12-05T20:49:50.119Z,11.30
2022-12-05T20:52:19.414Z,11.28
2022-12-05T20:54:47.953Z,11.33
2022-12-05T20:57:17.240Z,11.37
2022-12-05T20:59:46.444Z,11.37
2022-12-05T21:02:14.982Z,11.36
2022-12-05T21:04:43.673Z,11.36
2022-12-05T21:07:13.532Z,11.38
2022-12-05T21:09:42.311Z,11.41
2022-12-05T21:12:10.734Z,11.39
2022-12-05T21:14:40.024Z,11.42
2022-12-05T21:17:10.277Z,11.37
2022-12-05T21:19:39.729Z,11.35
2022-12-05T21:22:08.265Z,11.43
2022-12-05T21:24:40.212Z,11.44
2022-12-05T21:27:09.042Z,11.38
2022-12-05T21:29:37.232Z,11.41
2022-12-05T21:32:06.359Z,11.43
2022-12-05T21:34:34.605Z,11.39
2022-12-05T21:37:03.353Z,11.42
2022-12-05T21:39:32.423Z,11.42
2022-12-05T21:42:05.644Z,11.44
2022-12-05T21:44:33.948Z,11.32
2022-12-05T21:47:02.364Z,11.36
2022-12-05T21:49:30.892Z,11.45
2022-12-05T21:51:59.159Z,11.46
2022-12-05T21:54:27.320Z,11.47
2022-12-05T21:56:55.386Z,11.45
2022-12-05T21:59:23.792Z,11.47
2022-12-05T22:01:52.788Z,11.49
2022-12-05T22:04:21.031Z,11.49
2022-12-05T22:06:49.524Z,11.52
2022-12-05T22:09:19.179Z,11.55
2022-12-05T22:11:47.811Z,11.47
2022-12-05T22:14:15.971Z,11.51
2022-12-05T22:16:44.249Z,11.51
2022-12-05T22:19:12.575Z,11.55
2022-12-05T22:21:40.718Z,11.52
2022-12-05T22:24:11.228Z,11.50
2022-12-05T22:26:41.526Z,11.50
2022-12-05T22:29:09.970Z,11.51
2022-12-05T22:31:40.576Z,11.52
2022-12-05T22:34:09.266Z,11.44
2022-12-05T22:36:37.305Z,11.46
2022-12-05T22:39:05.342Z,11.44
2022-12-05T22:41:33.894Z,11.50
2022-12-05T22:44:01.771Z,11.45
2022-12-05T22:46:29.683Z,11.48
2022-12-05T22:48:58.681Z,11.46
2022-12-05T22:51:27.618Z,11.46
2022-12-05T22:53:56.755Z,11.44
2022-12-05T22:56:28.819Z,11.44
2022-12-05T22:59:00.251Z,11.33
2022-12-05T23:01:34.484Z,11.42
2022-12-05T23:04:11.511Z,11.42
2022-12-05T23:06:40.199Z,11.42
2022-12-05T23:09:10.941Z,11.43
2022-12-05T23:11:40.265Z,11.33
2022-12-05T23:14:09.572Z,11.41
2022-12-05T23:16:37.597Z,11.40
2022-12-05T23:19:06.038Z,11.37
2022-12-05T23:21:39.024Z,11.26
2022-12-05T23:24:12.860Z,11.37
2022-12-05T23:26:46.043Z,11.29
2022-12-05T23:29:15.044Z,11.34
2022-12-05T23:31:43.435Z,11.31
2022-12-05T23:34:12.443Z,11.31
2022-12-05T23:36:40.658Z,11.32
2022-12-05T23:39:10.531Z,11.33
2022-12-05T23:41:38.858Z,11.31
2022-12-05T23:44:07.127Z,11.30
2022-12-05T23:46:35.091Z,11.25
2022-12-05T23:49:04.160Z,11.31
2022-12-05T23:51:32.435Z,11.32
2022-12-05T23:54:04.297Z,11.33
2022-12-05T23:56:34.783Z,11.37
2022-12-05T23:59:06.564Z,11.38
